sensor_id;sensor_type;location;lat;lon;timestamp;temperature;humidity
46816;DHT22;32787;53.316;8.670;2022-11-18T00:01:30;4.20;93.50
46816;DHT22;32787;53.316;8.670;2022-11-18T00:03:56;4.20;93.40
46816;DHT22;32787;53.316;8.670;2022-11-18T00:06:24;4.20;93.40
46816;DHT22;32787;53.316;8.670;2022-11-18T00:08:53;4.20;93.50
46816;DHT22;32787;53.316;8.670;2022-11-18T00:11:24;4.10;93.50
46816;DHT22;32787;53.316;8.670;2022-11-18T00:14:13;4.10;93.50
46816;DHT22;32787;53.316;8.670;2022-11-18T00:16:52;4.10;93.70
46816;DHT22;32787;53.316;8.670;2022-11-18T00:19:20;4.00;93.80
46816;DHT22;32787;53.316;8.670;2022-11-18T00:21:46;4.10;94.00
46816;DHT22;32787;53.316;8.670;2022-11-18T00:24:11;4.00;94.00
46816;DHT22;32787;53.316;8.670;2022-11-18T00:26:37;4.10;94.10
46816;DHT22;32787;53.316;8.670;2022-11-18T00:29:03;4.00;94.00
46816;DHT22;32787;53.316;8.670;2022-11-18T00:31:29;4.00;94.00
46816;DHT22;32787;53.316;8.670;2022-11-18T00:33:54;4.00;94.10
46816;DHT22;32787;53.316;8.670;2022-11-18T00:36:20;3.90;94.10
46816;DHT22;32787;53.316;8.670;2022-11-18T00:38:46;4.00;94.10
46816;DHT22;32787;53.316;8.670;2022-11-18T00:41:13;3.90;94.10
46816;DHT22;32787;53.316;8.670;2022-11-18T00:43:39;4.00;94.20
46816;DHT22;32787;53.316;8.670;2022-11-18T00:46:07;4.00;94.20
46816;DHT22;32787;53.316;8.670;2022-11-18T00:48:34;3.90;94.10
46816;DHT22;32787;53.316;8.670;2022-11-18T00:51:17;3.90;94.10
46816;DHT22;32787;53.316;8.670;2022-11-18T00:53:43;3.90;94.20
46816;DHT22;32787;53.316;8.670;2022-11-18T00:56:09;4.00;94.20
46816;DHT22;32787;53.316;8.670;2022-11-18T00:58:35;3.90;94.20
46816;DHT22;32787;53.316;8.670;2022-11-18T01:01:02;3.90;94.20
46816;DHT22;32787;53.316;8.670;2022-11-18T01:03:28;3.90;94.20
46816;DHT22;32787;53.316;8.670;2022-11-18T01:05:54;3.90;94.20
46816;DHT22;32787;53.316;8.670;2022-11-18T01:08:20;3.90;94.20
46816;DHT22;32787;53.316;8.670;2022-11-18T01:10:46;3.90;94.20
46816;DHT22;32787;53.316;8.670;2022-11-18T01:13:15;4.00;94.10
46816;DHT22;32787;53.316;8.670;2022-11-18T01:18:11;3.90;93.90
46816;DHT22;32787;53.316;8.670;2022-11-18T01:20:37;3.90;93.90
46816;DHT22;32787;53.316;8.670;2022-11-18T01:23:03;3.90;93.80
46816;DHT22;32787;53.316;8.670;2022-11-18T01:25:29;3.90;93.90
46816;DHT22;32787;53.316;8.670;2022-11-18T01:27:54;3.90;93.90
46816;DHT22;32787;53.316;8.670;2022-11-18T01:30:20;3.90;93.90
46816;DHT22;32787;53.316;8.670;2022-11-18T01:32:46;3.90;93.80
46816;DHT22;32787;53.316;8.670;2022-11-18T01:35:12;3.90;93.80
46816;DHT22;32787;53.316;8.670;2022-11-18T01:37:38;3.90;93.70
46816;DHT22;32787;53.316;8.670;2022-11-18T01:40:05;3.90;93.70
46816;DHT22;32787;53.316;8.670;2022-11-18T01:42:31;3.90;93.80
46816;DHT22;32787;53.316;8.670;2022-11-18T01:45:05;3.90;93.80
46816;DHT22;32787;53.316;8.670;2022-11-18T01:50:29;3.90;93.70
46816;DHT22;32787;53.316;8.670;2022-11-18T01:52:59;3.90;93.60
46816;DHT22;32787;53.316;8.670;2022-11-18T01:55:30;3.90;93.60
46816;DHT22;32787;53.316;8.670;2022-11-18T01:58:21;3.90;93.60
46816;DHT22;32787;53.316;8.670;2022-11-18T02:00:48;3.90;93.60
46816;DHT22;32787;53.316;8.670;2022-11-18T02:03:14;3.90;93.50
46816;DHT22;32787;53.316;8.670;2022-11-18T02:05:41;3.80;93.40
46816;DHT22;32787;53.316;8.670;2022-11-18T02:08:08;3.70;93.50
46816;DHT22;32787;53.316;8.670;2022-11-18T02:10:34;3.80;93.60
46816;DHT22;32787;53.316;8.670;2022-11-18T02:13:00;3.70;93.60
46816;DHT22;32787;53.316;8.670;2022-11-18T02:16:19;3.70;93.60
46816;DHT22;32787;53.316;8.670;2022-11-18T02:26:54;3.70;93.40
46816;DHT22;32787;53.316;8.670;2022-11-18T02:29:39;3.60;93.50
46816;DHT22;32787;53.316;8.670;2022-11-18T02:32:18;3.70;93.40
46816;DHT22;32787;53.316;8.670;2022-11-18T02:34:51;3.60;93.30
46816;DHT22;32787;53.316;8.670;2022-11-18T02:40:18;3.60;93.40
46816;DHT22;32787;53.316;8.670;2022-11-18T02:42:51;3.50;93.50
46816;DHT22;32787;53.316;8.670;2022-11-18T02:45:18;3.50;93.30
46816;DHT22;32787;53.316;8.670;2022-11-18T02:47:45;3.50;93.30
46816;DHT22;32787;53.316;8.670;2022-11-18T02:50:16;3.50;93.30
46816;DHT22;32787;53.316;8.670;2022-11-18T02:52:45;3.50;93.30
46816;DHT22;32787;53.316;8.670;2022-11-18T02:55:12;3.40;93.20
46816;DHT22;32787;53.316;8.670;2022-11-18T02:57:40;3.40;93.10
46816;DHT22;32787;53.316;8.670;2022-11-18T03:00:06;3.40;93.20
46816;DHT22;32787;53.316;8.670;2022-11-18T03:02:44;3.40;93.30
46816;DHT22;32787;53.316;8.670;2022-11-18T03:08:11;3.40;93.10
46816;DHT22;32787;53.316;8.670;2022-11-18T03:10:51;3.40;93.10
46816;DHT22;32787;53.316;8.670;2022-11-18T03:13:34;3.30;93.20
46816;DHT22;32787;53.316;8.670;2022-11-18T03:16:09;3.30;93.30
46816;DHT22;32787;53.316;8.670;2022-11-18T03:18:43;3.30;93.20
46816;DHT22;32787;53.316;8.670;2022-11-18T03:21:36;3.20;93.10
46816;DHT22;32787;53.316;8.670;2022-11-18T03:24:10;3.30;93.20
46816;DHT22;32787;53.316;8.670;2022-11-18T03:26:39;3.30;93.20
46816;DHT22;32787;53.316;8.670;2022-11-18T03:29:17;3.30;93.00
46816;DHT22;32787;53.316;8.670;2022-11-18T03:32:09;3.20;92.90
46816;DHT22;32787;53.316;8.670;2022-11-18T03:34:41;3.30;93.00
46816;DHT22;32787;53.316;8.670;2022-11-18T03:37:10;3.30;93.10
46816;DHT22;32787;53.316;8.670;2022-11-18T03:39:40;3.30;92.90
46816;DHT22;32787;53.316;8.670;2022-11-18T03:42:11;3.30;92.90
46816;DHT22;32787;53.316;8.670;2022-11-18T03:44:44;3.30;93.00
46816;DHT22;32787;53.316;8.670;2022-11-18T03:47:32;3.30;92.60
46816;DHT22;32787;53.316;8.670;2022-11-18T03:50:19;3.20;92.70
46816;DHT22;32787;53.316;8.670;2022-11-18T03:52:47;3.20;92.60
46816;DHT22;32787;53.316;8.670;2022-11-18T03:55:21;3.20;92.60
46816;DHT22;32787;53.316;8.670;2022-11-18T03:57:53;3.20;92.80
46816;DHT22;32787;53.316;8.670;2022-11-18T04:00:21;3.20;92.50
46816;DHT22;32787;53.316;8.670;2022-11-18T04:02:47;3.30;92.50
46816;DHT22;32787;53.316;8.670;2022-11-18T04:05:15;3.20;92.20
46816;DHT22;32787;53.316;8.670;2022-11-18T04:07:55;3.20;92.20
46816;DHT22;32787;53.316;8.670;2022-11-18T04:10:41;3.10;92.20
46816;DHT22;32787;53.316;8.670;2022-11-18T04:13:31;3.00;92.20
46816;DHT22;32787;53.316;8.670;2022-11-18T04:15:57;3.10;92.30
46816;DHT22;32787;53.316;8.670;2022-11-18T04:18:23;3.00;92.10
46816;DHT22;32787;53.316;8.670;2022-11-18T04:20:49;3.10;92.10
46816;DHT22;32787;53.316;8.670;2022-11-18T04:23:15;3.00;91.80
46816;DHT22;32787;53.316;8.670;2022-11-18T04:25:40;3.00;91.80
46816;DHT22;32787;53.316;8.670;2022-11-18T04:28:06;3.00;91.90
46816;DHT22;32787;53.316;8.670;2022-11-18T04:30:32;3.00;91.70
46816;DHT22;32787;53.316;8.670;2022-11-18T04:32:57;3.00;91.30
46816;DHT22;32787;53.316;8.670;2022-11-18T04:35:24;3.00;91.50
46816;DHT22;32787;53.316;8.670;2022-11-18T04:37:49;3.00;91.50
46816;DHT22;32787;53.316;8.670;2022-11-18T04:40:15;3.00;91.90
46816;DHT22;32787;53.316;8.670;2022-11-18T04:42:41;2.90;91.90
46816;DHT22;32787;53.316;8.670;2022-11-18T04:45:07;2.90;91.90
46816;DHT22;32787;53.316;8.670;2022-11-18T04:47:33;2.90;91.90
46816;DHT22;32787;53.316;8.670;2022-11-18T04:49:59;2.90;91.80
46816;DHT22;32787;53.316;8.670;2022-11-18T04:52:24;2.90;91.60
46816;DHT22;32787;53.316;8.670;2022-11-18T04:54:50;2.90;91.70
46816;DHT22;32787;53.316;8.670;2022-11-18T04:57:16;3.00;91.70
46816;DHT22;32787;53.316;8.670;2022-11-18T04:59:41;3.00;91.50
46816;DHT22;32787;53.316;8.670;2022-11-18T05:02:07;3.00;91.50
46816;DHT22;32787;53.316;8.670;2022-11-18T05:04:34;2.90;91.50
46816;DHT22;32787;53.316;8.670;2022-11-18T05:07:01;3.00;91.20
46816;DHT22;32787;53.316;8.670;2022-11-18T05:09:27;2.90;91.20
46816;DHT22;32787;53.316;8.670;2022-11-18T05:11:53;3.00;91.20
46816;DHT22;32787;53.316;8.670;2022-11-18T05:14:37;2.90;91.10
46816;DHT22;32787;53.316;8.670;2022-11-18T05:17:05;2.90;91.20
46816;DHT22;32787;53.316;8.670;2022-11-18T05:19:31;2.90;91.00
46816;DHT22;32787;53.316;8.670;2022-11-18T05:21:56;2.90;91.10
46816;DHT22;32787;53.316;8.670;2022-11-18T05:24:22;2.90;91.20
46816;DHT22;32787;53.316;8.670;2022-11-18T05:26:51;2.90;91.10
46816;DHT22;32787;53.316;8.670;2022-11-18T05:29:18;2.90;90.90
46816;DHT22;32787;53.316;8.670;2022-11-18T05:31:45;2.90;90.90
46816;DHT22;32787;53.316;8.670;2022-11-18T05:34:12;2.90;91.10
46816;DHT22;32787;53.316;8.670;2022-11-18T05:36:38;2.90;90.90
46816;DHT22;32787;53.316;8.670;2022-11-18T05:39:03;2.90;90.80
46816;DHT22;32787;53.316;8.670;2022-11-18T05:41:29;2.80;90.80
46816;DHT22;32787;53.316;8.670;2022-11-18T05:44:14;2.80;90.80
46816;DHT22;32787;53.316;8.670;2022-11-18T05:46:39;2.80;91.00
46816;DHT22;32787;53.316;8.670;2022-11-18T05:49:05;2.90;90.90
46816;DHT22;32787;53.316;8.670;2022-11-18T05:51:32;2.80;91.00
46816;DHT22;32787;53.316;8.670;2022-11-18T05:53:58;2.90;90.80
46816;DHT22;32787;53.316;8.670;2022-11-18T05:56:37;2.80;90.90
46816;DHT22;32787;53.316;8.670;2022-11-18T05:59:03;2.80;91.10
46816;DHT22;32787;53.316;8.670;2022-11-18T06:03:57;2.80;91.20
46816;DHT22;32787;53.316;8.670;2022-11-18T06:06:24;2.70;91.20
46816;DHT22;32787;53.316;8.670;2022-11-18T06:09:03;2.80;91.50
46816;DHT22;32787;53.316;8.670;2022-11-18T06:11:31;2.70;91.40
46816;DHT22;32787;53.316;8.670;2022-11-18T06:14:12;2.70;91.60
46816;DHT22;32787;53.316;8.670;2022-11-18T06:16:44;2.70;91.80
46816;DHT22;32787;53.316;8.670;2022-11-18T06:19:10;2.60;91.70
46816;DHT22;32787;53.316;8.670;2022-11-18T06:21:36;2.60;91.50
46816;DHT22;32787;53.316;8.670;2022-11-18T06:24:02;2.60;91.60
46816;DHT22;32787;53.316;8.670;2022-11-18T06:26:28;2.60;91.70
46816;DHT22;32787;53.316;8.670;2022-11-18T06:28:55;2.60;91.50
46816;DHT22;32787;53.316;8.670;2022-11-18T06:31:20;2.50;91.50
46816;DHT22;32787;53.316;8.670;2022-11-18T06:33:46;2.50;91.70
46816;DHT22;32787;53.316;8.670;2022-11-18T06:36:11;2.50;91.80
46816;DHT22;32787;53.316;8.670;2022-11-18T06:38:37;2.50;91.70
46816;DHT22;32787;53.316;8.670;2022-11-18T06:41:03;2.60;91.70
46816;DHT22;32787;53.316;8.670;2022-11-18T06:43:28;2.60;91.60
46816;DHT22;32787;53.316;8.670;2022-11-18T06:46:05;2.50;91.50
46816;DHT22;32787;53.316;8.670;2022-11-18T06:48:57;2.50;91.60
46816;DHT22;32787;53.316;8.670;2022-11-18T06:51:23;2.50;91.50
46816;DHT22;32787;53.316;8.670;2022-11-18T06:53:49;2.50;91.40
46816;DHT22;32787;53.316;8.670;2022-11-18T06:56:16;2.50;91.40
46816;DHT22;32787;53.316;8.670;2022-11-18T06:58:42;2.50;91.30
46816;DHT22;32787;53.316;8.670;2022-11-18T07:03:39;2.40;91.20
46816;DHT22;32787;53.316;8.670;2022-11-18T07:06:05;2.50;91.40
46816;DHT22;32787;53.316;8.670;2022-11-18T07:08:33;2.50;91.40
46816;DHT22;32787;53.316;8.670;2022-11-18T07:11:00;2.60;91.30
46816;DHT22;32787;53.316;8.670;2022-11-18T07:13:25;2.50;91.10
46816;DHT22;32787;53.316;8.670;2022-11-18T07:15:51;2.50;91.00
46816;DHT22;32787;53.316;8.670;2022-11-18T07:18:17;2.40;91.10
46816;DHT22;32787;53.316;8.670;2022-11-18T07:20:42;2.40;91.40
46816;DHT22;32787;53.316;8.670;2022-11-18T07:23:08;2.40;91.40
46816;DHT22;32787;53.316;8.670;2022-11-18T07:25:33;2.60;91.30
46816;DHT22;32787;53.316;8.670;2022-11-18T07:27:59;2.60;91.00
46816;DHT22;32787;53.316;8.670;2022-11-18T07:30:24;2.40;91.00
46816;DHT22;32787;53.316;8.670;2022-11-18T07:32:50;2.40;91.10
46816;DHT22;32787;53.316;8.670;2022-11-18T07:35:16;2.40;90.90
46816;DHT22;32787;53.316;8.670;2022-11-18T07:37:43;2.50;91.10
46816;DHT22;32787;53.316;8.670;2022-11-18T07:40:09;2.40;91.00
46816;DHT22;32787;53.316;8.670;2022-11-18T07:42:34;2.50;91.20
46816;DHT22;32787;53.316;8.670;2022-11-18T07:45:12;2.50;91.10
46816;DHT22;32787;53.316;8.670;2022-11-18T07:47:37;2.50;91.00
46816;DHT22;32787;53.316;8.670;2022-11-18T07:50:04;2.50;90.90
46816;DHT22;32787;53.316;8.670;2022-11-18T07:52:29;2.50;90.80
46816;DHT22;32787;53.316;8.670;2022-11-18T07:54:55;2.50;91.00
46816;DHT22;32787;53.316;8.670;2022-11-18T07:57:21;2.50;91.00
46816;DHT22;32787;53.316;8.670;2022-11-18T07:59:46;2.40;91.30
46816;DHT22;32787;53.316;8.670;2022-11-18T08:02:12;2.40;91.20
46816;DHT22;32787;53.316;8.670;2022-11-18T08:04:38;2.40;90.90
46816;DHT22;32787;53.316;8.670;2022-11-18T08:07:04;2.40;90.90
46816;DHT22;32787;53.316;8.670;2022-11-18T08:09:29;2.40;90.70
46816;DHT22;32787;53.316;8.670;2022-11-18T08:11:55;2.50;90.60
46816;DHT22;32787;53.316;8.670;2022-11-18T08:14:20;2.50;90.70
46816;DHT22;32787;53.316;8.670;2022-11-18T08:16:48;2.40;90.60
46816;DHT22;32787;53.316;8.670;2022-11-18T08:19:14;2.30;90.80
46816;DHT22;32787;53.316;8.670;2022-11-18T08:21:39;2.40;91.00
46816;DHT22;32787;53.316;8.670;2022-11-18T08:24:08;2.40;90.50
46816;DHT22;32787;53.316;8.670;2022-11-18T08:26:34;2.30;90.50
46816;DHT22;32787;53.316;8.670;2022-11-18T08:29:00;2.30;90.80
46816;DHT22;32787;53.316;8.670;2022-11-18T08:31:28;2.30;90.60
46816;DHT22;32787;53.316;8.670;2022-11-18T08:33:56;2.30;90.80
46816;DHT22;32787;53.316;8.670;2022-11-18T08:36:23;2.30;90.70
46816;DHT22;32787;53.316;8.670;2022-11-18T08:38:49;2.30;90.90
46816;DHT22;32787;53.316;8.670;2022-11-18T08:41:22;2.30;90.70
46816;DHT22;32787;53.316;8.670;2022-11-18T08:43:49;2.40;90.80
46816;DHT22;32787;53.316;8.670;2022-11-18T08:46:15;2.40;90.80
46816;DHT22;32787;53.316;8.670;2022-11-18T08:48:40;2.40;90.70
46816;DHT22;32787;53.316;8.670;2022-11-18T08:51:09;2.40;90.80
46816;DHT22;32787;53.316;8.670;2022-11-18T08:53:35;2.40;90.70
46816;DHT22;32787;53.316;8.670;2022-11-18T08:56:01;2.40;90.50
46816;DHT22;32787;53.316;8.670;2022-11-18T08:58:27;2.40;90.40
46816;DHT22;32787;53.316;8.670;2022-11-18T09:00:53;2.40;90.80
46816;DHT22;32787;53.316;8.670;2022-11-18T09:03:19;2.30;90.80
46816;DHT22;32787;53.316;8.670;2022-11-18T09:05:44;2.30;90.60
46816;DHT22;32787;53.316;8.670;2022-11-18T09:08:10;2.20;90.60
46816;DHT22;32787;53.316;8.670;2022-11-18T09:10:36;2.20;90.70
46816;DHT22;32787;53.316;8.670;2022-11-18T09:13:03;2.20;90.60
46816;DHT22;32787;53.316;8.670;2022-11-18T09:15:29;2.20;90.60
46816;DHT22;32787;53.316;8.670;2022-11-18T09:17:58;2.20;90.50
46816;DHT22;32787;53.316;8.670;2022-11-18T09:20:23;2.20;90.60
46816;DHT22;32787;53.316;8.670;2022-11-18T09:22:49;2.20;90.50
46816;DHT22;32787;53.316;8.670;2022-11-18T09:25:15;2.20;90.30
46816;DHT22;32787;53.316;8.670;2022-11-18T09:27:41;2.20;90.20
46816;DHT22;32787;53.316;8.670;2022-11-18T09:30:07;2.20;90.10
46816;DHT22;32787;53.316;8.670;2022-11-18T09:32:33;2.20;90.10
46816;DHT22;32787;53.316;8.670;2022-11-18T09:34:59;2.20;90.40
46816;DHT22;32787;53.316;8.670;2022-11-18T09:37:24;2.20;90.50
46816;DHT22;32787;53.316;8.670;2022-11-18T09:39:50;2.20;90.30
46816;DHT22;32787;53.316;8.670;2022-11-18T09:45:27;2.20;90.10
46816;DHT22;32787;53.316;8.670;2022-11-18T09:47:59;2.20;90.30
46816;DHT22;32787;53.316;8.670;2022-11-18T09:50:27;2.20;90.20
46816;DHT22;32787;53.316;8.670;2022-11-18T09:55:38;2.10;90.10
46816;DHT22;32787;53.316;8.670;2022-11-18T09:58:04;2.10;90.00
46816;DHT22;32787;53.316;8.670;2022-11-18T10:00:30;2.00;90.10
46816;DHT22;32787;53.316;8.670;2022-11-18T10:03:00;2.00;89.90
46816;DHT22;32787;53.316;8.670;2022-11-18T10:05:32;2.10;90.00
46816;DHT22;32787;53.316;8.670;2022-11-18T10:08:03;2.10;90.00
46816;DHT22;32787;53.316;8.670;2022-11-18T10:13:18;2.10;89.70
46816;DHT22;32787;53.316;8.670;2022-11-18T10:18:55;2.20;89.40
46816;DHT22;32787;53.316;8.670;2022-11-18T10:24:17;2.10;89.10
46816;DHT22;32787;53.316;8.670;2022-11-18T10:26:44;2.10;89.00
46816;DHT22;32787;53.316;8.670;2022-11-18T10:29:10;2.10;89.20
46816;DHT22;32787;53.316;8.670;2022-11-18T10:31:51;2.10;89.10
46816;DHT22;32787;53.316;8.670;2022-11-18T10:34:18;2.20;89.30
46816;DHT22;32787;53.316;8.670;2022-11-18T10:37:12;2.20;89.10
46816;DHT22;32787;53.316;8.670;2022-11-18T10:40:04;2.20;88.90
46816;DHT22;32787;53.316;8.670;2022-11-18T10:42:40;2.10;88.90
46816;DHT22;32787;53.316;8.670;2022-11-18T10:45:30;2.10;89.10
46816;DHT22;32787;53.316;8.670;2022-11-18T10:50:41;2.20;88.80
46816;DHT22;32787;53.316;8.670;2022-11-18T10:53:33;2.10;88.80
46816;DHT22;32787;53.316;8.670;2022-11-18T10:56:04;2.20;88.50
46816;DHT22;32787;53.316;8.670;2022-11-18T10:58:35;2.20;88.50
46816;DHT22;32787;53.316;8.670;2022-11-18T11:04:05;2.20;88.40
46816;DHT22;32787;53.316;8.670;2022-11-18T11:06:37;2.10;88.40
46816;DHT22;32787;53.316;8.670;2022-11-18T11:11:40;2.20;88.70
46816;DHT22;32787;53.316;8.670;2022-11-18T11:14:43;2.20;87.90
46816;DHT22;32787;53.316;8.670;2022-11-18T11:17:14;2.20;87.40
46816;DHT22;32787;53.316;8.670;2022-11-18T11:22:27;2.30;88.20
46816;DHT22;32787;53.316;8.670;2022-11-18T11:24:54;2.30;88.20
46816;DHT22;32787;53.316;8.670;2022-11-18T11:27:48;2.20;87.80
46816;DHT22;32787;53.316;8.670;2022-11-18T11:30:21;2.20;88.50
46816;DHT22;32787;53.316;8.670;2022-11-18T11:33:03;2.30;88.80
46816;DHT22;32787;53.316;8.670;2022-11-18T11:38:44;2.20;89.00
46816;DHT22;32787;53.316;8.670;2022-11-18T11:41:22;2.20;88.90
46816;DHT22;32787;53.316;8.670;2022-11-18T12:00:25;2.20;88.90
46816;DHT22;32787;53.316;8.670;2022-11-18T12:05:41;2.20;88.80
46816;DHT22;32787;53.316;8.670;2022-11-18T12:08:26;2.00;88.80
46816;DHT22;32787;53.316;8.670;2022-11-18T12:10:59;2.00;89.00
46816;DHT22;32787;53.316;8.670;2022-11-18T12:35:20;1.90;88.70
46816;DHT22;32787;53.316;8.670;2022-11-18T12:43:00;1.80;88.40
46816;DHT22;32787;53.316;8.670;2022-11-18T12:50:50;1.80;87.80
46816;DHT22;32787;53.316;8.670;2022-11-18T12:53:37;1.80;87.70
46816;DHT22;32787;53.316;8.670;2022-11-18T12:56:31;1.80;87.30
46816;DHT22;32787;53.316;8.670;2022-11-18T12:59:00;1.80;87.40
46816;DHT22;32787;53.316;8.670;2022-11-18T13:01:30;1.80;87.50
46816;DHT22;32787;53.316;8.670;2022-11-18T13:04:17;1.90;87.20
46816;DHT22;32787;53.316;8.670;2022-11-18T13:06:44;1.80;87.40
46816;DHT22;32787;53.316;8.670;2022-11-18T13:09:20;1.90;87.60
46816;DHT22;32787;53.316;8.670;2022-11-18T13:11:52;2.00;87.30
46816;DHT22;32787;53.316;8.670;2022-11-18T13:14:30;1.90;87.30
46816;DHT22;32787;53.316;8.670;2022-11-18T13:17:38;1.90;87.00
46816;DHT22;32787;53.316;8.670;2022-11-18T13:20:29;2.00;87.20
46816;DHT22;32787;53.316;8.670;2022-11-18T13:22:59;2.00;87.10
46816;DHT22;32787;53.316;8.670;2022-11-18T13:25:45;2.00;87.30
46816;DHT22;32787;53.316;8.670;2022-11-18T13:30:55;2.10;86.90
46816;DHT22;32787;53.316;8.670;2022-11-18T13:33:24;2.20;87.00
46816;DHT22;32787;53.316;8.670;2022-11-18T13:35:50;2.20;87.20
46816;DHT22;32787;53.316;8.670;2022-11-18T13:38:22;2.20;87.10
46816;DHT22;32787;53.316;8.670;2022-11-18T13:40:49;2.10;86.90
46816;DHT22;32787;53.316;8.670;2022-11-18T13:43:36;2.00;86.60
46816;DHT22;32787;53.316;8.670;2022-11-18T13:46:14;2.20;86.90
46816;DHT22;32787;53.316;8.670;2022-11-18T13:48:50;2.10;86.30
46816;DHT22;32787;53.316;8.670;2022-11-18T13:51:19;2.20;86.30
46816;DHT22;32787;53.316;8.670;2022-11-18T13:53:46;2.10;85.50
46816;DHT22;32787;53.316;8.670;2022-11-18T13:58:56;2.10;84.70
46816;DHT22;32787;53.316;8.670;2022-11-18T14:01:30;2.10;84.50
46816;DHT22;32787;53.316;8.670;2022-11-18T14:03:58;2.10;84.70
46816;DHT22;32787;53.316;8.670;2022-11-18T14:06:28;2.00;84.90
46816;DHT22;32787;53.316;8.670;2022-11-18T14:11:38;2.00;84.40
46816;DHT22;32787;53.316;8.670;2022-11-18T14:14:05;2.00;84.90
46816;DHT22;32787;53.316;8.670;2022-11-18T14:16:34;2.00;84.40
46816;DHT22;32787;53.316;8.670;2022-11-18T14:19:00;1.90;83.60
46816;DHT22;32787;53.316;8.670;2022-11-18T14:21:27;1.90;84.40
46816;DHT22;32787;53.316;8.670;2022-11-18T14:23:54;1.80;84.00
46816;DHT22;32787;53.316;8.670;2022-11-18T14:26:34;1.80;84.30
46816;DHT22;32787;53.316;8.670;2022-11-18T14:29:02;1.90;84.40
46816;DHT22;32787;53.316;8.670;2022-11-18T14:31:38;1.80;83.70
46816;DHT22;32787;53.316;8.670;2022-11-18T14:34:25;1.70;83.80
46816;DHT22;32787;53.316;8.670;2022-11-18T14:36:52;1.70;84.00
46816;DHT22;32787;53.316;8.670;2022-11-18T14:39:25;1.70;84.10
46816;DHT22;32787;53.316;8.670;2022-11-18T14:41:51;1.60;83.10
46816;DHT22;32787;53.316;8.670;2022-11-18T14:44:19;1.60;83.30
46816;DHT22;32787;53.316;8.670;2022-11-18T14:49:19;1.60;83.20
46816;DHT22;32787;53.316;8.670;2022-11-18T14:51:46;1.60;83.40
46816;DHT22;32787;53.316;8.670;2022-11-18T14:54:16;1.60;83.70
46816;DHT22;32787;53.316;8.670;2022-11-18T14:56:43;1.60;83.40
46816;DHT22;32787;53.316;8.670;2022-11-18T14:59:11;1.60;83.00
46816;DHT22;32787;53.316;8.670;2022-11-18T15:01:38;1.60;83.00
46816;DHT22;32787;53.316;8.670;2022-11-18T15:04:04;1.60;83.00
46816;DHT22;32787;53.316;8.670;2022-11-18T15:06:30;1.60;83.30
46816;DHT22;32787;53.316;8.670;2022-11-18T15:08:55;1.60;82.60
46816;DHT22;32787;53.316;8.670;2022-11-18T15:11:21;1.60;82.30
46816;DHT22;32787;53.316;8.670;2022-11-18T15:13:47;1.60;82.80
46816;DHT22;32787;53.316;8.670;2022-11-18T15:16:21;1.60;83.10
46816;DHT22;32787;53.316;8.670;2022-11-18T15:18:49;1.70;83.40
46816;DHT22;32787;53.316;8.670;2022-11-18T15:21:15;1.60;82.90
46816;DHT22;32787;53.316;8.670;2022-11-18T15:23:41;1.50;83.40
46816;DHT22;32787;53.316;8.670;2022-11-18T15:26:23;1.60;82.50
46816;DHT22;32787;53.316;8.670;2022-11-18T15:28:51;1.60;82.80
46816;DHT22;32787;53.316;8.670;2022-11-18T15:31:17;1.60;82.70
46816;DHT22;32787;53.316;8.670;2022-11-18T15:33:44;1.60;83.20
46816;DHT22;32787;53.316;8.670;2022-11-18T15:36:15;1.60;82.30
46816;DHT22;32787;53.316;8.670;2022-11-18T15:38:41;1.60;81.70
46816;DHT22;32787;53.316;8.670;2022-11-18T15:41:34;1.70;82.10
46816;DHT22;32787;53.316;8.670;2022-11-18T15:44:00;1.70;81.20
46816;DHT22;32787;53.316;8.670;2022-11-18T15:46:27;1.60;81.40
46816;DHT22;32787;53.316;8.670;2022-11-18T15:48:55;1.60;81.50
46816;DHT22;32787;53.316;8.670;2022-11-18T15:51:21;1.70;80.80
46816;DHT22;32787;53.316;8.670;2022-11-18T15:53:47;1.60;80.10
46816;DHT22;32787;53.316;8.670;2022-11-18T15:59:00;1.70;80.10
46816;DHT22;32787;53.316;8.670;2022-11-18T16:01:31;1.70;78.90
46816;DHT22;32787;53.316;8.670;2022-11-18T16:03:57;1.70;79.00
46816;DHT22;32787;53.316;8.670;2022-11-18T16:06:23;1.60;79.00
46816;DHT22;32787;53.316;8.670;2022-11-18T16:08:49;1.70;79.30
46816;DHT22;32787;53.316;8.670;2022-11-18T16:11:16;1.70;78.70
46816;DHT22;32787;53.316;8.670;2022-11-18T16:14:05;1.80;78.70
46816;DHT22;32787;53.316;8.670;2022-11-18T16:16:32;1.70;79.20
46816;DHT22;32787;53.316;8.670;2022-11-18T16:18:59;1.70;79.00
46816;DHT22;32787;53.316;8.670;2022-11-18T16:21:26;1.70;79.50
46816;DHT22;32787;53.316;8.670;2022-11-18T16:23:57;1.60;78.80
46816;DHT22;32787;53.316;8.670;2022-11-18T16:26:24;1.60;78.50
46816;DHT22;32787;53.316;8.670;2022-11-18T16:28:50;1.60;79.00
46816;DHT22;32787;53.316;8.670;2022-11-18T16:31:15;1.60;78.90
46816;DHT22;32787;53.316;8.670;2022-11-18T16:34:08;1.80;78.10
46816;DHT22;32787;53.316;8.670;2022-11-18T16:36:34;1.70;78.00
46816;DHT22;32787;53.316;8.670;2022-11-18T16:39:14;1.80;77.80
46816;DHT22;32787;53.316;8.670;2022-11-18T16:41:42;1.70;78.30
46816;DHT22;32787;53.316;8.670;2022-11-18T16:44:13;1.70;78.10
46816;DHT22;32787;53.316;8.670;2022-11-18T16:46:41;1.60;77.90
46816;DHT22;32787;53.316;8.670;2022-11-18T16:49:10;1.70;78.40
46816;DHT22;32787;53.316;8.670;2022-11-18T16:51:36;1.70;78.00
46816;DHT22;32787;53.316;8.670;2022-11-18T16:54:05;1.70;78.50
46816;DHT22;32787;53.316;8.670;2022-11-18T16:56:33;1.70;79.00
46816;DHT22;32787;53.316;8.670;2022-11-18T16:59:05;1.60;78.70
46816;DHT22;32787;53.316;8.670;2022-11-18T17:01:31;1.70;78.70
46816;DHT22;32787;53.316;8.670;2022-11-18T17:03:58;1.70;78.50
46816;DHT22;32787;53.316;8.670;2022-11-18T17:06:25;1.70;78.70
46816;DHT22;32787;53.316;8.670;2022-11-18T17:08:51;1.60;78.60
46816;DHT22;32787;53.316;8.670;2022-11-18T17:11:17;1.70;79.50
46816;DHT22;32787;53.316;8.670;2022-11-18T17:13:43;1.70;78.60
46816;DHT22;32787;53.316;8.670;2022-11-18T17:16:15;1.70;78.70
46816;DHT22;32787;53.316;8.670;2022-11-18T17:18:41;1.70;78.70
46816;DHT22;32787;53.316;8.670;2022-11-18T17:21:18;1.70;78.10
46816;DHT22;32787;53.316;8.670;2022-11-18T17:23:45;1.70;78.90
46816;DHT22;32787;53.316;8.670;2022-11-18T17:26:13;1.80;78.90
46816;DHT22;32787;53.316;8.670;2022-11-18T17:28:40;1.70;78.40
46816;DHT22;32787;53.316;8.670;2022-11-18T17:31:07;1.70;79.20
46816;DHT22;32787;53.316;8.670;2022-11-18T17:33:34;1.70;79.00
46816;DHT22;32787;53.316;8.670;2022-11-18T17:36:03;1.60;78.40
46816;DHT22;32787;53.316;8.670;2022-11-18T17:38:30;1.60;78.10
46816;DHT22;32787;53.316;8.670;2022-11-18T17:40:56;1.60;78.90
46816;DHT22;32787;53.316;8.670;2022-11-18T17:43:23;1.50;78.20
46816;DHT22;32787;53.316;8.670;2022-11-18T17:45:53;1.60;78.40
46816;DHT22;32787;53.316;8.670;2022-11-18T17:48:19;1.60;78.40
46816;DHT22;32787;53.316;8.670;2022-11-18T17:50:46;1.60;78.10
46816;DHT22;32787;53.316;8.670;2022-11-18T17:53:12;1.70;78.30
46816;DHT22;32787;53.316;8.670;2022-11-18T17:55:38;1.60;78.20
46816;DHT22;32787;53.316;8.670;2022-11-18T17:58:04;1.60;77.50
46816;DHT22;32787;53.316;8.670;2022-11-18T18:00:30;1.60;77.40